sensor_id;sensor_type;location;lat;lon;timestamp;temperature;humidity
11423;DHT22;5768;51.476;7.210;2023-03-31T00:02:51;12.10;20.90
11423;DHT22;5768;51.476;7.210;2023-03-31T00:07:56;12.10;21.00
11423;DHT22;5768;51.476;7.210;2023-03-31T00:13:01;12.10;20.80
11423;DHT22;5768;51.476;7.210;2023-03-31T00:18:07;12.10;21.00
11423;DHT22;5768;51.476;7.210;2023-03-31T00:23:09;12.10;20.90
11423;DHT22;5768;51.476;7.210;2023-03-31T00:28:14;12.10;20.60
11423;DHT22;5768;51.476;7.210;2023-03-31T00:33:17;12.10;20.50
11423;DHT22;5768;51.476;7.210;2023-03-31T00:38:20;12.10;20.30
11423;DHT22;5768;51.476;7.210;2023-03-31T00:43:28;12.30;20.10
11423;DHT22;5768;51.476;7.210;2023-03-31T00:48:35;12.20;20.00
11423;DHT22;5768;51.476;7.210;2023-03-31T00:53:39;12.30;20.00
11423;DHT22;5768;51.476;7.210;2023-03-31T00:58:42;12.30;19.70
11423;DHT22;5768;51.476;7.210;2023-03-31T01:03:48;12.40;19.50
11423;DHT22;5768;51.476;7.210;2023-03-31T01:08:51;12.60;19.40
11423;DHT22;5768;51.476;7.210;2023-03-31T01:13:54;12.50;19.50
11423;DHT22;5768;51.476;7.210;2023-03-31T01:18:59;12.50;19.60
11423;DHT22;5768;51.476;7.210;2023-03-31T01:24:40;12.70;19.80
11423;DHT22;5768;51.476;7.210;2023-03-31T01:36:35;12.60;21.20
11423;DHT22;5768;51.476;7.210;2023-03-31T01:42:00;12.50;21.90
11423;DHT22;5768;51.476;7.210;2023-03-31T01:47:14;12.20;22.50
11423;DHT22;5768;51.476;7.210;2023-03-31T01:52:24;12.20;22.80
11423;DHT22;5768;51.476;7.210;2023-03-31T01:57:34;12.30;23.00
11423;DHT22;5768;51.476;7.210;2023-03-31T02:02:42;12.40;22.60
11423;DHT22;5768;51.476;7.210;2023-03-31T02:07:51;12.50;22.60
11423;DHT22;5768;51.476;7.210;2023-03-31T02:12:59;12.40;23.30
11423;DHT22;5768;51.476;7.210;2023-03-31T02:18:03;12.60;22.60
11423;DHT22;5768;51.476;7.210;2023-03-31T02:23:12;12.60;22.70
11423;DHT22;5768;51.476;7.210;2023-03-31T02:28:20;12.50;22.80
11423;DHT22;5768;51.476;7.210;2023-03-31T02:33:24;12.40;23.30
11423;DHT22;5768;51.476;7.210;2023-03-31T02:38:27;12.50;23.00
11423;DHT22;5768;51.476;7.210;2023-03-31T02:43:32;12.40;23.50
11423;DHT22;5768;51.476;7.210;2023-03-31T02:48:36;12.40;23.70
11423;DHT22;5768;51.476;7.210;2023-03-31T02:59:33;12.20;24.50
11423;DHT22;5768;51.476;7.210;2023-03-31T03:05:01;12.00;25.00
11423;DHT22;5768;51.476;7.210;2023-03-31T03:10:27;12.10;26.00
11423;DHT22;5768;51.476;7.210;2023-03-31T03:15:43;12.10;26.10
11423;DHT22;5768;51.476;7.210;2023-03-31T03:20:49;12.00;26.00
11423;DHT22;5768;51.476;7.210;2023-03-31T03:25:52;12.00;26.10
11423;DHT22;5768;51.476;7.210;2023-03-31T03:30:56;12.10;26.10
11423;DHT22;5768;51.476;7.210;2023-03-31T03:35:59;12.10;25.50
11423;DHT22;5768;51.476;7.210;2023-03-31T03:41:01;12.20;26.00
11423;DHT22;5768;51.476;7.210;2023-03-31T03:46:04;12.30;25.50
11423;DHT22;5768;51.476;7.210;2023-03-31T03:51:07;12.40;25.20
11423;DHT22;5768;51.476;7.210;2023-03-31T03:56:09;12.40;25.00
11423;DHT22;5768;51.476;7.210;2023-03-31T04:01:13;12.40;24.70
11423;DHT22;5768;51.476;7.210;2023-03-31T04:06:15;12.50;24.70
11423;DHT22;5768;51.476;7.210;2023-03-31T04:11:18;12.50;24.10
11423;DHT22;5768;51.476;7.210;2023-03-31T04:16:21;12.40;23.90
11423;DHT22;5768;51.476;7.210;2023-03-31T04:21:25;12.50;24.20
11423;DHT22;5768;51.476;7.210;2023-03-31T04:26:28;12.50;23.70
11423;DHT22;5768;51.476;7.210;2023-03-31T04:31:40;12.50;23.80
11423;DHT22;5768;51.476;7.210;2023-03-31T04:36:44;12.50;23.30
11423;DHT22;5768;51.476;7.210;2023-03-31T04:41:48;12.60;22.70
11423;DHT22;5768;51.476;7.210;2023-03-31T04:46:51;12.50;23.50
11423;DHT22;5768;51.476;7.210;2023-03-31T04:51:54;12.50;23.40
11423;DHT22;5768;51.476;7.210;2023-03-31T04:56:56;12.50;22.70
11423;DHT22;5768;51.476;7.210;2023-03-31T05:01:59;12.40;22.90
11423;DHT22;5768;51.476;7.210;2023-03-31T05:07:02;12.30;23.30
11423;DHT22;5768;51.476;7.210;2023-03-31T05:12:06;12.30;24.10
11423;DHT22;5768;51.476;7.210;2023-03-31T05:17:13;12.30;23.80
11423;DHT22;5768;51.476;7.210;2023-03-31T05:22:17;12.30;23.60
11423;DHT22;5768;51.476;7.210;2023-03-31T05:27:20;12.20;23.20
11423;DHT22;5768;51.476;7.210;2023-03-31T05:32:24;12.30;23.40
11423;DHT22;5768;51.476;7.210;2023-03-31T05:37:27;12.40;23.20
11423;DHT22;5768;51.476;7.210;2023-03-31T05:42:30;12.30;22.50
11423;DHT22;5768;51.476;7.210;2023-03-31T05:47:34;12.40;22.80
11423;DHT22;5768;51.476;7.210;2023-03-31T05:52:36;12.30;22.80
11423;DHT22;5768;51.476;7.210;2023-03-31T05:57:38;12.40;21.90
11423;DHT22;5768;51.476;7.210;2023-03-31T06:02:43;12.40;21.50
11423;DHT22;5768;51.476;7.210;2023-03-31T06:07:46;12.50;21.60
11423;DHT22;5768;51.476;7.210;2023-03-31T06:12:49;12.50;21.20
11423;DHT22;5768;51.476;7.210;2023-03-31T06:17:52;12.50;21.30
11423;DHT22;5768;51.476;7.210;2023-03-31T06:22:54;12.60;21.20
11423;DHT22;5768;51.476;7.210;2023-03-31T06:27:57;12.60;20.70
11423;DHT22;5768;51.476;7.210;2023-03-31T06:33:03;12.60;20.50
11423;DHT22;5768;51.476;7.210;2023-03-31T06:38:05;12.40;20.90
11423;DHT22;5768;51.476;7.210;2023-03-31T06:43:08;12.40;21.80
11423;DHT22;5768;51.476;7.210;2023-03-31T06:48:12;12.30;22.40
11423;DHT22;5768;51.476;7.210;2023-03-31T06:53:15;12.30;22.50
11423;DHT22;5768;51.476;7.210;2023-03-31T06:58:25;12.10;23.70
11423;DHT22;5768;51.476;7.210;2023-03-31T07:03:29;12.00;24.60
11423;DHT22;5768;51.476;7.210;2023-03-31T07:08:32;12.10;23.80
11423;DHT22;5768;51.476;7.210;2023-03-31T07:13:34;12.00;23.70
11423;DHT22;5768;51.476;7.210;2023-03-31T07:18:37;12.10;24.20
11423;DHT22;5768;51.476;7.210;2023-03-31T07:23:41;11.90;23.90
11423;DHT22;5768;51.476;7.210;2023-03-31T07:28:44;12.10;23.50
11423;DHT22;5768;51.476;7.210;2023-03-31T07:33:47;12.00;23.70
11423;DHT22;5768;51.476;7.210;2023-03-31T07:38:49;11.90;23.40
11423;DHT22;5768;51.476;7.210;2023-03-31T07:43:52;12.10;24.30
11423;DHT22;5768;51.476;7.210;2023-03-31T07:48:56;12.30;22.80
11423;DHT22;5768;51.476;7.210;2023-03-31T07:53:59;12.40;22.20
11423;DHT22;5768;51.476;7.210;2023-03-31T07:59:01;12.10;22.70
11423;DHT22;5768;51.476;7.210;2023-03-31T08:04:05;12.20;22.20
11423;DHT22;5768;51.476;7.210;2023-03-31T08:09:07;12.40;22.20
11423;DHT22;5768;51.476;7.210;2023-03-31T08:14:10;12.30;21.20
11423;DHT22;5768;51.476;7.210;2023-03-31T08:19:14;12.60;21.20
11423;DHT22;5768;51.476;7.210;2023-03-31T08:24:16;12.90;20.00
11423;DHT22;5768;51.476;7.210;2023-03-31T08:29:18;12.50;20.10
11423;DHT22;5768;51.476;7.210;2023-03-31T08:34:22;12.50;21.20
11423;DHT22;5768;51.476;7.210;2023-03-31T08:39:25;12.40;21.60
11423;DHT22;5768;51.476;7.210;2023-03-31T08:44:31;12.20;21.80
11423;DHT22;5768;51.476;7.210;2023-03-31T08:49:42;12.30;22.40
11423;DHT22;5768;51.476;7.210;2023-03-31T08:54:52;12.20;22.30
11423;DHT22;5768;51.476;7.210;2023-03-31T08:59:59;11.90;23.60
11423;DHT22;5768;51.476;7.210;2023-03-31T09:05:34;11.90;23.60
11423;DHT22;5768;51.476;7.210;2023-03-31T09:10:50;12.40;22.60
11423;DHT22;5768;51.476;7.210;2023-03-31T09:16:00;12.80;22.00
11423;DHT22;5768;51.476;7.210;2023-03-31T09:21:13;13.10;21.50
11423;DHT22;5768;51.476;7.210;2023-03-31T09:26:24;13.10;20.70
11423;DHT22;5768;51.476;7.210;2023-03-31T09:31:33;13.40;20.20
11423;DHT22;5768;51.476;7.210;2023-03-31T09:36:37;13.90;20.20
11423;DHT22;5768;51.476;7.210;2023-03-31T09:41:43;14.00;19.90
11423;DHT22;5768;51.476;7.210;2023-03-31T09:46:47;14.20;19.50
11423;DHT22;5768;51.476;7.210;2023-03-31T09:52:00;14.40;19.50
11423;DHT22;5768;51.476;7.210;2023-03-31T09:57:14;14.40;19.40
11423;DHT22;5768;51.476;7.210;2023-03-31T10:02:35;14.30;19.50
11423;DHT22;5768;51.476;7.210;2023-03-31T10:07:41;14.20;19.90
11423;DHT22;5768;51.476;7.210;2023-03-31T10:12:50;14.10;19.20
11423;DHT22;5768;51.476;7.210;2023-03-31T10:17:53;14.30;19.40
11423;DHT22;5768;51.476;7.210;2023-03-31T10:23:03;14.80;18.90
11423;DHT22;5768;51.476;7.210;2023-03-31T10:28:17;15.30;18.40
11423;DHT22;5768;51.476;7.210;2023-03-31T10:33:23;15.70;17.70
11423;DHT22;5768;51.476;7.210;2023-03-31T10:38:30;15.50;17.80
11423;DHT22;5768;51.476;7.210;2023-03-31T10:43:46;15.10;18.30
11423;DHT22;5768;51.476;7.210;2023-03-31T10:48:51;14.10;19.00
11423;DHT22;5768;51.476;7.210;2023-03-31T10:54:00;13.60;18.40
11423;DHT22;5768;51.476;7.210;2023-03-31T10:59:17;13.60;18.30
11423;DHT22;5768;51.476;7.210;2023-03-31T11:04:49;13.60;18.20
11423;DHT22;5768;51.476;7.210;2023-03-31T11:10:32;14.10;18.10
11423;DHT22;5768;51.476;7.210;2023-03-31T11:15:45;15.00;17.80
11423;DHT22;5768;51.476;7.210;2023-03-31T11:21:02;15.90;16.60
11423;DHT22;5768;51.476;7.210;2023-03-31T11:26:16;15.40;16.60
11423;DHT22;5768;51.476;7.210;2023-03-31T11:31:32;13.70;18.30
11423;DHT22;5768;51.476;7.210;2023-03-31T11:36:47;13.00;19.70
11423;DHT22;5768;51.476;7.210;2023-03-31T11:42:04;12.90;19.60
11423;DHT22;5768;51.476;7.210;2023-03-31T11:47:14;13.00;19.70
11423;DHT22;5768;51.476;7.210;2023-03-31T11:52:26;12.90;18.80
11423;DHT22;5768;51.476;7.210;2023-03-31T11:57:37;13.40;18.70
11423;DHT22;5768;51.476;7.210;2023-03-31T12:02:47;14.00;18.30
11423;DHT22;5768;51.476;7.210;2023-03-31T12:07:58;15.30;17.10
11423;DHT22;5768;51.476;7.210;2023-03-31T12:13:37;15.80;16.20
11423;DHT22;5768;51.476;7.210;2023-03-31T12:18:54;16.00;16.60
11423;DHT22;5768;51.476;7.210;2023-03-31T12:24:01;15.70;16.20
11423;DHT22;5768;51.476;7.210;2023-03-31T12:29:20;15.50;15.90
11423;DHT22;5768;51.476;7.210;2023-03-31T12:34:27;15.80;15.60
11423;DHT22;5768;51.476;7.210;2023-03-31T12:39:40;15.70;16.00
11423;DHT22;5768;51.476;7.210;2023-03-31T12:44:57;15.00;16.20
11423;DHT22;5768;51.476;7.210;2023-03-31T12:50:35;14.90;16.50
11423;DHT22;5768;51.476;7.210;2023-03-31T12:55:45;14.40;17.30
11423;DHT22;5768;51.476;7.210;2023-03-31T13:01:04;13.80;18.30
11423;DHT22;5768;51.476;7.210;2023-03-31T13:06:09;14.10;18.10
11423;DHT22;5768;51.476;7.210;2023-03-31T13:11:17;14.40;17.70
11423;DHT22;5768;51.476;7.210;2023-03-31T13:16:22;14.90;17.50
11423;DHT22;5768;51.476;7.210;2023-03-31T13:21:25;16.10;16.40
11423;DHT22;5768;51.476;7.210;2023-03-31T13:26:39;17.10;16.00
11423;DHT22;5768;51.476;7.210;2023-03-31T13:32:17;18.50;15.00
11423;DHT22;5768;51.476;7.210;2023-03-31T13:37:36;18.40;14.90
11423;DHT22;5768;51.476;7.210;2023-03-31T13:48:57;17.80;15.00
11423;DHT22;5768;51.476;7.210;2023-03-31T14:00:27;17.40;15.20
11423;DHT22;5768;51.476;7.210;2023-03-31T14:05:41;17.50;15.10
11423;DHT22;5768;51.476;7.210;2023-03-31T14:10:44;17.20;15.10
11423;DHT22;5768;51.476;7.210;2023-03-31T14:15:48;16.60;14.80
11423;DHT22;5768;51.476;7.210;2023-03-31T14:21:10;16.60;14.80
11423;DHT22;5768;51.476;7.210;2023-03-31T14:26:35;16.20;14.70
11423;DHT22;5768;51.476;7.210;2023-03-31T14:31:55;15.80;14.50
11423;DHT22;5768;51.476;7.210;2023-03-31T14:37:08;16.20;14.50
11423;DHT22;5768;51.476;7.210;2023-03-31T14:42:18;16.00;14.30
11423;DHT22;5768;51.476;7.210;2023-03-31T14:47:23;15.90;14.40
11423;DHT22;5768;51.476;7.210;2023-03-31T14:52:30;16.10;14.30
11423;DHT22;5768;51.476;7.210;2023-03-31T14:57:37;16.20;14.30
11423;DHT22;5768;51.476;7.210;2023-03-31T15:02:43;16.10;14.00
11423;DHT22;5768;51.476;7.210;2023-03-31T15:07:48;15.60;14.20
11423;DHT22;5768;51.476;7.210;2023-03-31T15:12:50;15.50;14.10
11423;DHT22;5768;51.476;7.210;2023-03-31T15:17:53;15.60;14.20
11423;DHT22;5768;51.476;7.210;2023-03-31T15:22:58;15.40;14.40
11423;DHT22;5768;51.476;7.210;2023-03-31T15:28:03;14.90;15.00
11423;DHT22;5768;51.476;7.210;2023-03-31T15:33:18;14.50;14.90
11423;DHT22;5768;51.476;7.210;2023-03-31T15:38:27;14.30;15.50
11423;DHT22;5768;51.476;7.210;2023-03-31T15:43:41;14.00;16.50
11423;DHT22;5768;51.476;7.210;2023-03-31T15:48:50;13.50;18.40
11423;DHT22;5768;51.476;7.210;2023-03-31T15:53:55;13.50;18.20
11423;DHT22;5768;51.476;7.210;2023-03-31T15:59:00;14.00;17.80
11423;DHT22;5768;51.476;7.210;2023-03-31T16:04:07;14.50;17.80
11423;DHT22;5768;51.476;7.210;2023-03-31T16:09:16;15.10;17.10
11423;DHT22;5768;51.476;7.210;2023-03-31T16:14:25;14.20;17.00
11423;DHT22;5768;51.476;7.210;2023-03-31T16:19:41;13.90;17.10
11423;DHT22;5768;51.476;7.210;2023-03-31T16:24:50;14.10;16.90
11423;DHT22;5768;51.476;7.210;2023-03-31T16:30:06;14.00;16.50
11423;DHT22;5768;51.476;7.210;2023-03-31T16:35:10;13.80;16.70
11423;DHT22;5768;51.476;7.210;2023-03-31T16:40:14;13.50;16.90
11423;DHT22;5768;51.476;7.210;2023-03-31T16:45:16;13.60;17.00
11423;DHT22;5768;51.476;7.210;2023-03-31T16:50:21;13.30;17.30
11423;DHT22;5768;51.476;7.210;2023-03-31T16:55:25;13.30;17.50
11423;DHT22;5768;51.476;7.210;2023-03-31T17:00:27;13.20;17.50
11423;DHT22;5768;51.476;7.210;2023-03-31T17:05:30;12.60;18.90
11423;DHT22;5768;51.476;7.210;2023-03-31T17:10:35;12.60;19.60
11423;DHT22;5768;51.476;7.210;2023-03-31T17:15:37;12.60;19.10
11423;DHT22;5768;51.476;7.210;2023-03-31T17:20:39;12.80;19.50
11423;DHT22;5768;51.476;7.210;2023-03-31T17:25:47;12.80;19.60
11423;DHT22;5768;51.476;7.210;2023-03-31T17:30:50;12.70;19.50
11423;DHT22;5768;51.476;7.210;2023-03-31T17:35:54;12.90;19.50
11423;DHT22;5768;51.476;7.210;2023-03-31T17:41:03;12.60;19.90
11423;DHT22;5768;51.476;7.210;2023-03-31T17:46:08;12.30;20.40
11423;DHT22;5768;51.476;7.210;2023-03-31T17:51:13;12.10;20.30
11423;DHT22;5768;51.476;7.210;2023-03-31T17:56:18;11.70;23.30
11423;DHT22;5768;51.476;7.210;2023-03-31T18:01:20;11.50;24.50
11423;DHT22;5768;51.476;7.210;2023-03-31T18:06:22;11.50;26.30
11423;DHT22;5768;51.476;7.210;2023-03-31T18:11:27;11.60;27.80
11423;DHT22;5768;51.476;7.210;2023-03-31T18:16:30;11.70;25.70
11423;DHT22;5768;51.476;7.210;2023-03-31T18:21:33;11.50;26.20
11423;DHT22;5768;51.476;7.210;2023-03-31T18:26:38;11.50;27.50
11423;DHT22;5768;51.476;7.210;2023-03-31T18:31:40;11.50;27.70
11423;DHT22;5768;51.476;7.210;2023-03-31T18:36:42;11.40;27.00
11423;DHT22;5768;51.476;7.210;2023-03-31T18:41:47;11.40;25.30
11423;DHT22;5768;51.476;7.210;2023-03-31T18:46:50;11.50;25.50
11423;DHT22;5768;51.476;7.210;2023-03-31T18:51:52;11.70;23.90
11423;DHT22;5768;51.476;7.210;2023-03-31T18:56:56;11.50;22.80
11423;DHT22;5768;51.476;7.210;2023-03-31T19:01:58;11.50;23.00
11423;DHT22;5768;51.476;7.210;2023-03-31T19:07:00;11.60;23.00
11423;DHT22;5768;51.476;7.210;2023-03-31T19:12:04;11.70;22.00
11423;DHT22;5768;51.476;7.210;2023-03-31T19:17:07;11.70;22.70
11423;DHT22;5768;51.476;7.210;2023-03-31T19:22:09;11.80;22.50
11423;DHT22;5768;51.476;7.210;2023-03-31T19:27:13;11.90;22.00
11423;DHT22;5768;51.476;7.210;2023-03-31T19:32:15;11.90;22.10
11423;DHT22;5768;51.476;7.210;2023-03-31T19:37:18;11.90;22.00
11423;DHT22;5768;51.476;7.210;2023-03-31T19:42:22;11.70;22.50
11423;DHT22;5768;51.476;7.210;2023-03-31T19:47:24;11.20;27.10
11423;DHT22;5768;51.476;7.210;2023-03-31T19:52:27;11.10;29.30
11423;DHT22;5768;51.476;7.210;2023-03-31T19:57:31;11.10;27.40
11423;DHT22;5768;51.476;7.210;2023-03-31T20:02:34;11.20;26.30
11423;DHT22;5768;51.476;7.210;2023-03-31T20:07:36;11.20;26.60
11423;DHT22;5768;51.476;7.210;2023-03-31T20:12:40;11.20;24.50
11423;DHT22;5768;51.476;7.210;2023-03-31T20:17:42;11.20;23.80
11423;DHT22;5768;51.476;7.210;2023-03-31T20:22:45;11.30;24.10
11423;DHT22;5768;51.476;7.210;2023-03-31T20:27:49;11.30;24.50
11423;DHT22;5768;51.476;7.210;2023-03-31T20:32:51;11.40;23.20
11423;DHT22;5768;51.476;7.210;2023-03-31T20:37:53;11.40;22.80
11423;DHT22;5768;51.476;7.210;2023-03-31T20:42:57;11.30;23.20
11423;DHT22;5768;51.476;7.210;2023-03-31T20:47:59;11.40;23.30
11423;DHT22;5768;51.476;7.210;2023-03-31T20:53:02;11.30;24.80
11423;DHT22;5768;51.476;7.210;2023-03-31T20:58:06;11.40;25.90
11423;DHT22;5768;51.476;7.210;2023-03-31T21:03:08;11.30;25.70
11423;DHT22;5768;51.476;7.210;2023-03-31T21:08:11;11.40;25.90
11423;DHT22;5768;51.476;7.210;2023-03-31T21:13:15;11.20;26.10
11423;DHT22;5768;51.476;7.210;2023-03-31T21:18:17;11.10;26.00
11423;DHT22;5768;51.476;7.210;2023-03-31T21:23:20;11.20;27.00
11423;DHT22;5768;51.476;7.210;2023-03-31T21:28:26;11.00;27.20
11423;DHT22;5768;51.476;7.210;2023-03-31T21:33:31;10.90;28.70
11423;DHT22;5768;51.476;7.210;2023-03-31T21:38:35;10.90;28.30
11423;DHT22;5768;51.476;7.210;2023-03-31T21:43:39;10.80;27.80
11423;DHT22;5768;51.476;7.210;2023-03-31T21:48:41;10.90;26.90
11423;DHT22;5768;51.476;7.210;2023-03-31T21:53:44;10.70;27.10
11423;DHT22;5768;51.476;7.210;2023-03-31T21:58:48;10.90;28.30
11423;DHT22;5768;51.476;7.210;2023-03-31T22:03:51;10.90;27.20
11423;DHT22;5768;51.476;7.210;2023-03-31T22:08:53;10.80;26.80
11423;DHT22;5768;51.476;7.210;2023-03-31T22:13:57;10.90;25.80
11423;DHT22;5768;51.476;7.210;2023-03-31T22:18:59;10.90;25.10
11423;DHT22;5768;51.476;7.210;2023-03-31T22:24:01;11.00;24.50
11423;DHT22;5768;51.476;7.210;2023-03-31T22:29:04;11.00;24.70
11423;DHT22;5768;51.476;7.210;2023-03-31T22:34:06;11.00;24.30
11423;DHT22;5768;51.476;7.210;2023-03-31T22:39:09;10.90;24.00
11423;DHT22;5768;51.476;7.210;2023-03-31T22:44:12;11.00;24.30
11423;DHT22;5768;51.476;7.210;2023-03-31T22:49:18;10.90;24.90
11423;DHT22;5768;51.476;7.210;2023-03-31T22:54:20;11.00;25.20
11423;DHT22;5768;51.476;7.210;2023-03-31T22:59:23;10.80;26.00
11423;DHT22;5768;51.476;7.210;2023-03-31T23:04:26;10.90;25.40
11423;DHT22;5768;51.476;7.210;2023-03-31T23:09:28;11.00;24.50
11423;DHT22;5768;51.476;7.210;2023-03-31T23:14:32;11.00;23.90
11423;DHT22;5768;51.476;7.210;2023-03-31T23:19:35;11.00;23.60
11423;DHT22;5768;51.476;7.210;2023-03-31T23:24:38;11.10;24.00
11423;DHT22;5768;51.476;7.210;2023-03-31T23:29:42;10.90;25.20
11423;DHT22;5768;51.476;7.210;2023-03-31T23:34:45;10.90;26.60
11423;DHT22;5768;51.476;7.210;2023-03-31T23:39:47;10.80;27.80
11423;DHT22;5768;51.476;7.210;2023-03-31T23:44:51;10.70;28.60
11423;DHT22;5768;51.476;7.210;2023-03-31T23:49:53;10.70;27.70
11423;DHT22;5768;51.476;7.210;2023-03-31T23:54:56;10.70;27.60
